createdAt,value
2018-07-03T00:01:33.162Z,17.36
2018-07-03T00:04:01.530Z,17.29
2018-07-03T00:06:29.835Z,17.34
2018-07-03T00:08:58.111Z,17.24
2018-07-03T00:11:25.977Z,17.15
2018-07-03T00:13:54.312Z,17.12
2018-07-03T00:16:27.860Z,17.06
2018-07-03T00:18:56.141Z,16.97
2018-07-03T00:21:24.403Z,17.01
2018-07-03T00:23:52.689Z,16.96
2018-07-03T00:26:20.950Z,16.91
2018-07-03T00:28:49.217Z,16.80
2018-07-03T00:31:17.473Z,16.81
2018-07-03T00:33:45.752Z,16.95
2018-07-03T00:36:14.000Z,16.76
2018-07-03T00:38:42.333Z,16.74
2018-07-03T00:41:10.615Z,16.68
2018-07-03T00:43:38.914Z,16.51
2018-07-03T00:46:07.165Z,16.47
2018-07-03T00:48:35.467Z,16.35
2018-07-03T00:51:04.020Z,16.41
2018-07-03T00:53:32.269Z,16.45
2018-07-03T00:56:00.653Z,16.52
2018-07-03T00:58:28.905Z,16.57
2018-07-03T01:00:58.225Z,16.68
2018-07-03T01:03:26.614Z,16.69
2018-07-03T01:05:55.905Z,16.54
2018-07-03T01:08:24.169Z,16.45
2018-07-03T01:10:52.572Z,16.44
2018-07-03T01:13:21.837Z,16.46
2018-07-03T01:15:50.245Z,16.37
2018-07-03T01:18:18.509Z,16.35
2018-07-03T01:20:46.803Z,16.36
2018-07-03T01:23:15.049Z,16.43
2018-07-03T01:25:43.333Z,16.43
2018-07-03T01:28:11.613Z,16.34
2018-07-03T01:30:40.013Z,16.27
2018-07-03T01:33:08.289Z,16.31
2018-07-03T01:35:36.561Z,16.28
2018-07-03T01:38:05.825Z,16.25
2018-07-03T01:40:34.100Z,16.30
2018-07-03T01:43:02.482Z,16.14
2018-07-03T01:45:31.069Z,16.10
2018-07-03T01:47:59.317Z,16.13
2018-07-03T01:50:27.560Z,16.04
2018-07-03T01:52:55.841Z,15.88
2018-07-03T01:55:24.116Z,15.93
2018-07-03T01:57:53.513Z,15.93
2018-07-03T02:00:21.752Z,15.80
2018-07-03T02:02:50.014Z,15.64
2018-07-03T02:05:18.421Z,15.81
2018-07-03T02:07:46.717Z,15.75
2018-07-03T02:10:14.981Z,15.83
2018-07-03T02:12:43.253Z,15.74
2018-07-03T02:15:11.513Z,15.85
2018-07-03T02:17:40.096Z,15.74
2018-07-03T02:20:08.384Z,15.81
2018-07-03T02:22:36.653Z,15.65
2018-07-03T02:25:04.945Z,15.52
2018-07-03T02:27:34.200Z,15.66
2018-07-03T02:30:02.507Z,15.72
2018-07-03T02:32:31.745Z,15.65
2018-07-03T02:35:00.041Z,15.66
2018-07-03T02:37:28.301Z,15.58
2018-07-03T02:39:56.604Z,15.76
2018-07-03T02:42:24.869Z,15.59
2018-07-03T02:44:53.385Z,15.67
2018-07-03T02:47:21.680Z,15.63
2018-07-03T02:49:50.029Z,15.45
2018-07-03T02:52:18.303Z,15.54
2018-07-03T02:54:46.549Z,15.55
2018-07-03T02:57:15.913Z,15.59
2018-07-03T02:59:44.186Z,15.63
2018-07-03T03:02:12.903Z,15.69
2018-07-03T03:04:41.185Z,15.69
2018-07-03T03:07:09.482Z,15.67
2018-07-03T03:09:37.760Z,15.65
2018-07-03T03:12:06.073Z,15.68
2018-07-03T03:14:34.329Z,15.67
2018-07-03T03:17:02.621Z,15.63
2018-07-03T03:19:30.877Z,15.68
2018-07-03T03:21:59.177Z,15.67
2018-07-03T03:24:27.450Z,15.71
2018-07-03T03:26:55.726Z,15.90
2018-07-03T03:29:24.078Z,15.90
2018-07-03T03:31:52.381Z,15.91
2018-07-03T03:34:20.968Z,15.97
2018-07-03T03:36:50.288Z,15.95
2018-07-03T03:39:19.649Z,16.01
2018-07-03T03:41:47.897Z,16.21
2018-07-03T03:44:16.195Z,16.22
2018-07-03T03:46:44.449Z,16.29
2018-07-03T03:49:14.808Z,16.29
2018-07-03T03:51:43.069Z,16.21
2018-07-03T03:54:11.365Z,16.28
2018-07-03T03:56:39.650Z,16.23
2018-07-03T03:59:07.941Z,16.26
2018-07-03T04:01:36.213Z,16.46
2018-07-03T04:04:04.597Z,16.39
2018-07-03T04:06:32.876Z,16.38
2018-07-03T04:09:01.153Z,16.45
2018-07-03T04:11:29.409Z,16.39
2018-07-03T04:13:57.703Z,16.39
2018-07-03T04:16:25.958Z,16.56
2018-07-03T04:18:54.233Z,16.58
2018-07-03T04:21:22.537Z,16.58
2018-07-03T04:23:50.808Z,16.55
2018-07-03T04:26:19.129Z,16.61
2018-07-03T04:28:48.590Z,16.81
2018-07-03T04:31:16.881Z,16.90
2018-07-03T04:33:45.161Z,16.86
2018-07-03T04:36:13.441Z,16.97
2018-07-03T04:38:41.741Z,16.93
2018-07-03T04:41:10.040Z,17.03
2018-07-03T04:43:38.293Z,17.33
2018-07-03T04:46:06.597Z,17.03
2018-07-03T04:48:34.849Z,17.18
2018-07-03T04:51:04.181Z,17.37
2018-07-03T04:53:32.436Z,17.36
2018-07-03T04:56:00.724Z,17.27
2018-07-03T04:58:29.004Z,16.85
2018-07-03T05:00:57.309Z,16.85
2018-07-03T05:03:25.565Z,17.10
2018-07-03T05:05:53.888Z,17.45
2018-07-03T05:08:22.144Z,17.44
2018-07-03T05:10:50.424Z,17.52
2018-07-03T05:13:18.697Z,17.49
2018-07-03T05:15:46.972Z,17.64
2018-07-03T05:18:15.253Z,17.78
2018-07-03T05:20:43.579Z,17.69
2018-07-03T05:23:11.816Z,17.97
2018-07-03T05:25:40.151Z,18.32
2018-07-03T05:28:08.414Z,18.48
2018-07-03T05:30:37.738Z,18.37
2018-07-03T05:33:06.588Z,18.49
2018-07-03T05:35:34.847Z,18.56
2018-07-03T05:38:04.294Z,18.82
2018-07-03T05:40:32.657Z,18.51
2018-07-03T05:43:01.020Z,17.98
2018-07-03T05:45:29.452Z,18.08
2018-07-03T05:47:57.581Z,18.62
2018-07-03T05:50:25.933Z,18.59
2018-07-03T05:52:55.365Z,18.89
2018-07-03T05:55:23.619Z,18.84
2018-07-03T05:57:51.948Z,18.81
2018-07-03T06:00:20.207Z,18.20
2018-07-03T06:02:48.521Z,18.27
2018-07-03T06:05:16.800Z,18.32
2018-07-03T06:07:45.091Z,18.77
2018-07-03T06:10:13.381Z,18.21
2018-07-03T06:12:41.709Z,18.61
2018-07-03T06:15:10.006Z,18.98
2018-07-03T06:17:38.289Z,19.04
2018-07-03T06:20:07.806Z,19.14
2018-07-03T06:22:36.130Z,19.56
2018-07-03T06:25:04.701Z,19.43
2018-07-03T06:27:32.981Z,19.51
2018-07-03T06:30:01.278Z,20.07
2018-07-03T06:32:29.569Z,20.33
2018-07-03T06:34:57.849Z,20.28
2018-07-03T06:37:27.285Z,19.69
2018-07-03T06:39:56.618Z,19.87
2018-07-03T06:42:24.864Z,20.36
2018-07-03T06:44:53.175Z,20.10
2018-07-03T06:47:21.659Z,20.51
2018-07-03T06:49:49.877Z,20.97
2018-07-03T06:52:18.113Z,21.21
2018-07-03T06:54:46.356Z,20.74
2018-07-03T06:57:15.693Z,21.12
2018-07-03T06:59:43.957Z,21.24
2018-07-03T07:02:12.245Z,21.06
2018-07-03T07:04:40.672Z,21.15
2018-07-03T07:07:08.985Z,20.68
2018-07-03T07:09:37.317Z,20.82
2018-07-03T07:12:05.729Z,21.06
2018-07-03T07:14:33.985Z,21.01
2018-07-03T07:17:02.277Z,21.34
2018-07-03T07:19:30.521Z,21.86
2018-07-03T07:21:58.795Z,21.79
2018-07-03T07:24:27.069Z,21.45
2018-07-03T07:26:56.413Z,21.43
2018-07-03T07:29:24.649Z,21.61
2018-07-03T07:31:52.928Z,22.05
2018-07-03T07:34:21.168Z,22.18
2018-07-03T07:36:49.438Z,22.11
2018-07-03T07:39:17.699Z,22.31
2018-07-03T07:41:46.000Z,22.48
2018-07-03T07:44:14.285Z,21.71
2018-07-03T07:46:42.541Z,22.18
2018-07-03T07:49:10.810Z,21.97
2018-07-03T07:51:39.046Z,21.62
2018-07-03T07:54:08.164Z,21.84
2018-07-03T07:56:36.516Z,22.34
2018-07-03T07:59:05.025Z,22.58
2018-07-03T08:01:33.280Z,22.65
2018-07-03T08:04:01.547Z,22.63
2018-07-03T08:06:29.837Z,22.65
2018-07-03T08:08:58.144Z,22.45
2018-07-03T08:11:26.401Z,22.26
2018-07-03T08:13:54.689Z,22.14
2018-07-03T08:16:22.963Z,22.40
2018-07-03T08:18:51.260Z,22.27
2018-07-03T08:21:19.513Z,22.68
2018-07-03T08:23:47.777Z,22.60
2018-07-03T08:26:16.001Z,22.80
2018-07-03T08:28:44.288Z,23.01
2018-07-03T08:31:12.521Z,22.89
2018-07-03T08:33:41.782Z,22.84
2018-07-03T08:36:10.095Z,22.89
2018-07-03T08:38:38.348Z,23.36
2018-07-03T08:41:06.728Z,23.21
2018-07-03T08:43:35.001Z,23.54
2018-07-03T08:46:04.277Z,23.87
2018-07-03T08:48:33.718Z,23.64
2018-07-03T08:51:01.981Z,23.53
2018-07-03T08:53:30.249Z,24.45
2018-07-03T08:55:58.598Z,23.44
2018-07-03T08:58:27.029Z,23.55
2018-07-03T09:00:55.340Z,23.43
2018-07-03T09:03:23.606Z,23.85
2018-07-03T09:05:51.897Z,23.48
2018-07-03T09:08:20.337Z,23.35
2018-07-03T09:10:48.604Z,23.95
2018-07-03T09:13:16.845Z,24.56
2018-07-03T09:15:45.113Z,23.91
2018-07-03T09:18:13.426Z,23.34
2018-07-03T09:20:41.697Z,23.08
2018-07-03T09:23:09.966Z,23.25
2018-07-03T09:25:38.246Z,23.82
2018-07-03T09:28:06.532Z,23.36
2018-07-03T09:30:35.828Z,23.37
2018-07-03T09:33:04.136Z,23.30
2018-07-03T09:35:32.381Z,23.64
2018-07-03T09:38:01.699Z,23.75
2018-07-03T09:40:29.941Z,24.01
2018-07-03T09:42:58.249Z,23.75
2018-07-03T09:45:26.505Z,23.28
2018-07-03T09:47:55.861Z,23.49
2018-07-03T09:50:24.113Z,24.68
2018-07-03T09:52:52.385Z,25.30
2018-07-03T09:55:20.660Z,24.91
2018-07-03T09:57:48.956Z,25.36
2018-07-03T10:00:21.352Z,25.37
2018-07-03T10:02:49.642Z,24.86
2018-07-03T10:05:17.908Z,24.62
2018-07-03T10:07:46.177Z,25.01
2018-07-03T10:10:14.421Z,24.05
2018-07-03T10:12:42.884Z,23.56
2018-07-03T10:15:11.142Z,23.81
2018-07-03T10:17:39.394Z,23.91
2018-07-03T10:20:08.213Z,23.31
2018-07-03T10:22:36.457Z,23.30
2018-07-03T10:25:04.740Z,23.54
2018-07-03T10:27:32.993Z,23.75
2018-07-03T10:30:02.350Z,23.84
2018-07-03T10:32:30.609Z,23.09
2018-07-03T10:34:58.876Z,23.05
2018-07-03T10:37:27.116Z,23.00
2018-07-03T10:39:56.613Z,23.25
2018-07-03T10:42:24.941Z,23.19
2018-07-03T10:44:54.293Z,23.45
2018-07-03T10:47:23.631Z,23.73
2018-07-03T10:49:51.916Z,24.37
2018-07-03T10:52:20.170Z,24.36
2018-07-03T10:54:48.437Z,23.90
2018-07-03T10:57:16.687Z,23.29
2018-07-03T10:59:44.985Z,23.77
2018-07-03T11:02:13.305Z,23.93
2018-07-03T11:04:41.604Z,23.14
2018-07-03T11:07:10.717Z,23.44
2018-07-03T11:09:40.453Z,23.51
2018-07-03T11:12:08.689Z,23.43
2018-07-03T11:14:36.933Z,23.45
2018-07-03T11:17:05.217Z,23.38
2018-07-03T11:19:33.795Z,23.76
2018-07-03T11:22:02.034Z,23.67
2018-07-03T11:24:30.429Z,23.78
2018-07-03T11:26:58.664Z,23.92
2018-07-03T11:29:26.939Z,23.90
2018-07-03T11:31:55.381Z,24.86
2018-07-03T11:34:23.622Z,25.42
2018-07-03T11:36:51.869Z,25.13
2018-07-03T11:39:20.271Z,25.37
2018-07-03T11:41:48.514Z,25.99
2018-07-03T11:44:16.798Z,25.35
2018-07-03T11:46:45.157Z,25.48
2018-07-03T11:49:13.464Z,24.84
2018-07-03T11:51:41.709Z,23.84
2018-07-03T11:54:10.385Z,23.79
2018-07-03T11:56:38.617Z,23.58
2018-07-03T11:59:06.869Z,23.92
2018-07-03T12:01:35.211Z,24.04
2018-07-03T12:04:03.457Z,24.37
2018-07-03T12:06:31.744Z,24.38
2018-07-03T12:09:00.126Z,24.48
2018-07-03T12:11:29.387Z,24.31
2018-07-03T12:13:57.745Z,24.11
2018-07-03T12:16:26.012Z,24.57
2018-07-03T12:19:00.500Z,24.74
2018-07-03T12:21:29.393Z,24.49
2018-07-03T12:23:59.131Z,24.22
2018-07-03T12:26:27.574Z,23.71
2018-07-03T12:28:55.921Z,23.52
2018-07-03T12:31:24.160Z,23.86
2018-07-03T12:33:53.552Z,23.74
2018-07-03T12:36:21.792Z,23.83
2018-07-03T12:38:50.086Z,23.78
2018-07-03T12:41:18.333Z,23.86
2018-07-03T12:43:46.826Z,23.77
2018-07-03T12:46:15.086Z,24.07
2018-07-03T12:48:43.401Z,24.12
2018-07-03T12:51:12.025Z,24.24
2018-07-03T12:53:40.297Z,24.43
2018-07-03T12:56:08.737Z,23.78
2018-07-03T12:58:37.125Z,24.15
2018-07-03T13:01:05.444Z,23.94
2018-07-03T13:03:33.737Z,24.29
2018-07-03T13:06:02.013Z,24.17
2018-07-03T13:08:30.293Z,24.35
2018-07-03T13:10:58.619Z,24.95
2018-07-03T13:13:26.865Z,24.92
2018-07-03T13:15:55.263Z,24.96
2018-07-03T13:18:24.301Z,25.56
2018-07-03T13:20:54.094Z,26.21
2018-07-03T13:23:23.929Z,26.04
2018-07-03T13:25:52.481Z,26.07
2018-07-03T13:28:21.193Z,26.90
2018-07-03T13:30:49.486Z,25.83
2018-07-03T13:33:17.769Z,25.68
2018-07-03T13:35:46.033Z,25.86
2018-07-03T13:38:14.337Z,25.89
2018-07-03T13:40:42.582Z,26.90
2018-07-03T13:43:10.853Z,25.85
2018-07-03T13:45:42.381Z,25.27
2018-07-03T13:48:11.021Z,25.71
2018-07-03T13:50:39.262Z,25.62
2018-07-03T13:53:07.684Z,26.20
2018-07-03T13:55:35.978Z,28.20
2018-07-03T13:58:04.192Z,30.08
2018-07-03T14:00:32.453Z,32.34
2018-07-03T14:03:00.938Z,33.03
2018-07-03T14:05:29.207Z,32.23
2018-07-03T14:07:57.452Z,32.90
2018-07-03T14:10:25.725Z,36.05
2018-07-03T14:12:53.977Z,38.71
2018-07-03T14:15:22.262Z,39.21
2018-07-03T14:17:50.558Z,37.81
2018-07-03T14:20:18.841Z,38.91
2018-07-03T14:22:47.133Z,40.44
2018-07-03T14:25:15.478Z,42.00
2018-07-03T14:27:43.740Z,42.73
2018-07-03T14:30:12.231Z,40.11
2018-07-03T14:32:40.493Z,39.06
2018-07-03T14:35:08.826Z,38.64
2018-07-03T14:37:37.101Z,36.62
2018-07-03T14:40:05.438Z,37.04
2018-07-03T14:42:33.702Z,41.75
2018-07-03T14:45:01.997Z,40.94
2018-07-03T14:47:30.371Z,41.38
2018-07-03T14:49:58.660Z,37.69
2018-07-03T14:52:26.970Z,37.05
2018-07-03T14:54:55.236Z,40.87
2018-07-03T14:57:23.516Z,42.26
2018-07-03T14:59:51.785Z,38.55
2018-07-03T15:02:20.264Z,38.93
2018-07-03T15:04:48.441Z,35.38
2018-07-03T15:07:16.761Z,36.69
2018-07-03T15:09:45.014Z,34.77
2018-07-03T15:12:13.441Z,35.90
2018-07-03T15:14:41.694Z,34.79
2018-07-03T15:17:09.953Z,37.09
2018-07-03T15:19:43.576Z,36.84
2018-07-03T15:22:11.883Z,39.07
2018-07-03T15:24:40.132Z,40.39
2018-07-03T15:27:08.439Z,38.29
2018-07-03T15:29:36.696Z,39.64
2018-07-03T15:32:05.038Z,38.08
2018-07-03T15:34:33.300Z,38.85
2018-07-03T15:37:01.586Z,37.87
2018-07-03T15:39:29.889Z,39.48
2018-07-03T15:41:58.169Z,38.58
2018-07-03T15:44:37.733Z,37.32
2018-07-03T15:47:06.107Z,38.77
2018-07-03T15:49:34.368Z,38.46
2018-07-03T15:52:02.676Z,38.24
2018-07-03T15:54:30.945Z,38.72
2018-07-03T15:57:00.310Z,40.79
2018-07-03T15:59:29.682Z,39.24
2018-07-03T16:01:57.947Z,36.94
2018-07-03T16:05:36.393Z,39.27
2018-07-03T16:09:10.313Z,39.76
2018-07-03T16:11:39.160Z,38.73
2018-07-03T16:14:07.761Z,38.37
2018-07-03T16:16:36.053Z,40.95
2018-07-03T16:19:09.682Z,38.78
2018-07-03T16:21:37.957Z,41.14
2018-07-03T16:24:06.425Z,41.32
2018-07-03T16:26:34.720Z,41.44
2018-07-03T16:29:03.293Z,39.07
2018-07-03T16:31:31.585Z,40.14
2018-07-03T16:33:59.953Z,37.79
2018-07-03T16:36:28.276Z,37.48
2018-07-03T16:38:56.561Z,36.62
2018-07-03T16:41:24.866Z,34.80
2018-07-03T16:43:53.120Z,35.46
2018-07-03T16:46:21.409Z,37.15
2018-07-03T16:48:49.665Z,36.94
2018-07-03T16:51:19.033Z,36.25
2018-07-03T16:53:47.287Z,36.63
2018-07-03T16:56:16.609Z,38.37
2018-07-03T16:58:45.877Z,35.48
2018-07-03T17:01:14.170Z,34.66
2018-07-03T17:03:42.416Z,34.65
2018-07-03T17:06:10.717Z,33.16
2018-07-03T17:08:38.962Z,35.18
2018-07-03T17:11:07.297Z,34.83
2018-07-03T17:13:35.590Z,34.62
2018-07-03T17:16:03.896Z,33.30
2018-07-03T17:18:32.764Z,32.94
2018-07-03T17:21:01.069Z,32.01
2018-07-03T17:23:29.625Z,32.76
2018-07-03T17:25:57.884Z,31.96
2018-07-03T17:28:26.501Z,32.70
2018-07-03T17:30:54.757Z,33.72
2018-07-03T17:33:23.929Z,33.64
2018-07-03T17:35:52.217Z,32.69
2018-07-03T17:38:21.499Z,32.46
2018-07-03T17:41:01.198Z,31.23
2018-07-03T17:44:38.756Z,31.96
2018-07-03T17:47:07.009Z,31.23
2018-07-03T17:49:35.261Z,28.30
2018-07-03T17:52:03.578Z,26.43
2018-07-03T17:54:31.837Z,25.80
2018-07-03T17:57:00.309Z,24.61
2018-07-03T17:59:28.568Z,23.64
2018-07-03T18:01:56.823Z,23.49
2018-07-03T18:04:25.344Z,23.16
2018-07-03T18:06:53.585Z,23.29
2018-07-03T18:09:21.873Z,22.96
2018-07-03T18:11:50.145Z,22.79
2018-07-03T18:14:18.426Z,22.69
2018-07-03T18:16:46.641Z,22.56
2018-07-03T18:19:20.225Z,22.13
2018-07-03T18:21:48.462Z,22.04
2018-07-03T18:24:16.745Z,21.90
2018-07-03T18:26:45.026Z,21.78
2018-07-03T18:29:13.334Z,21.82
2018-07-03T18:31:43.658Z,21.56
2018-07-03T18:34:11.915Z,21.47
2018-07-03T18:36:40.170Z,21.38
2018-07-03T18:39:09.213Z,21.28
2018-07-03T18:41:37.469Z,21.30
2018-07-03T18:44:05.733Z,21.41
2018-07-03T18:46:35.097Z,21.11
2018-07-03T18:49:03.381Z,21.38
2018-07-03T18:51:31.626Z,20.97
2018-07-03T18:53:59.888Z,21.11
2018-07-03T18:56:28.146Z,20.97
2018-07-03T18:58:56.393Z,20.83
2018-07-03T19:01:24.657Z,20.79
2018-07-03T19:03:52.958Z,20.67
2018-07-03T19:06:21.285Z,20.61
2018-07-03T19:08:49.541Z,20.52
2018-07-03T19:11:17.837Z,20.41
2018-07-03T19:13:46.049Z,20.31
2018-07-03T19:16:14.325Z,20.39
2018-07-03T19:18:42.568Z,20.34
2018-07-03T19:21:10.873Z,20.16
2018-07-03T19:23:39.131Z,20.09
2018-07-03T19:26:07.688Z,20.14
2018-07-03T19:28:36.107Z,20.00
2018-07-03T19:31:04.285Z,19.94
2018-07-03T19:33:32.565Z,19.80
2018-07-03T19:36:00.898Z,19.64
2018-07-03T19:38:29.164Z,19.61
2018-07-03T19:40:57.421Z,19.45
2018-07-03T19:43:27.156Z,19.38
2018-07-03T19:45:56.073Z,19.40
2018-07-03T19:48:24.509Z,19.53
2018-07-03T19:50:53.335Z,19.62
2018-07-03T19:53:21.708Z,19.53
2018-07-03T19:55:51.281Z,19.51
2018-07-03T19:58:19.780Z,19.38
2018-07-03T20:00:49.266Z,19.25
2018-07-03T20:03:17.561Z,19.07
2018-07-03T20:05:46.100Z,18.90
2018-07-03T20:08:15.405Z,18.94
2018-07-03T20:10:43.882Z,18.95
2018-07-03T20:13:14.885Z,18.76
2018-07-03T20:15:43.184Z,18.84
2018-07-03T20:18:12.438Z,18.59
2018-07-03T20:20:40.701Z,18.44
2018-07-03T20:23:10.019Z,18.26
2018-07-03T20:25:38.907Z,18.17
2018-07-03T20:28:07.589Z,18.16
2018-07-03T20:30:36.348Z,18.14
2018-07-03T20:33:04.669Z,18.01
2018-07-03T20:35:32.955Z,18.07
2018-07-03T20:38:02.537Z,18.03
2018-07-03T20:40:41.469Z,17.85
2018-07-03T20:43:09.724Z,17.96
2018-07-03T20:45:37.989Z,17.82
2018-07-03T20:48:06.278Z,17.74
2018-07-03T20:53:27.241Z,17.58
2018-07-03T20:55:55.577Z,17.56
2018-07-03T20:58:24.077Z,17.69
2018-07-03T21:00:52.844Z,17.50
2018-07-03T21:03:23.305Z,17.41
2018-07-03T21:05:51.709Z,17.23
2018-07-03T21:08:20.038Z,17.11
2018-07-03T21:10:48.338Z,17.02
2018-07-03T21:13:16.597Z,17.02
2018-07-03T21:15:46.381Z,17.00
2018-07-03T21:18:16.759Z,16.90
2018-07-03T21:20:45.032Z,16.85
2018-07-03T21:23:18.364Z,16.88
2018-07-03T21:25:46.637Z,16.68
2018-07-03T21:28:14.996Z,16.68
2018-07-03T21:30:43.278Z,16.65
2018-07-03T21:33:11.546Z,16.51
2018-07-03T21:35:39.849Z,16.56
2018-07-03T21:38:08.175Z,16.52
2018-07-03T21:40:36.509Z,16.72
2018-07-03T21:43:04.784Z,16.65
2018-07-03T21:45:33.085Z,16.51
2018-07-03T21:48:01.387Z,16.48
2018-07-03T21:50:29.674Z,16.36
2018-07-03T21:52:57.958Z,16.12
2018-07-03T21:55:26.249Z,16.16
2018-07-03T21:57:54.535Z,16.18
2018-07-03T22:00:34.241Z,16.03
2018-07-03T22:03:02.821Z,15.98
2018-07-03T22:05:31.176Z,15.99
2018-07-03T22:07:59.483Z,15.98
2018-07-03T22:10:27.781Z,15.81
2018-07-03T22:12:56.085Z,15.84
2018-07-03T22:15:24.448Z,15.82
2018-07-03T22:17:52.816Z,15.81
2018-07-03T22:20:21.185Z,15.83
2018-07-03T22:22:49.453Z,15.84
2018-07-03T22:25:17.803Z,15.87
2018-07-03T22:27:46.173Z,15.89
2018-07-03T22:30:14.606Z,15.94
2018-07-03T22:32:42.925Z,15.83
2018-07-03T22:35:12.295Z,15.81
2018-07-03T22:37:40.534Z,15.71
2018-07-03T22:40:08.813Z,15.66
2018-07-03T22:42:37.120Z,15.68
2018-07-03T22:45:05.537Z,15.56
2018-07-03T22:47:34.841Z,15.47
2018-07-03T22:50:03.153Z,15.60
2018-07-03T22:52:31.481Z,15.73
2018-07-03T22:54:59.741Z,15.60
2018-07-03T22:57:28.033Z,15.72
2018-07-03T22:59:56.316Z,15.58
2018-07-03T23:02:24.686Z,15.36
2018-07-03T23:04:52.942Z,15.33
2018-07-03T23:07:21.233Z,15.26
2018-07-03T23:09:49.517Z,15.35
2018-07-03T23:12:18.789Z,15.42
2018-07-03T23:14:48.022Z,15.53
2018-07-03T23:17:16.417Z,15.54
2018-07-03T23:19:44.719Z,15.49
2018-07-03T23:22:13.277Z,15.56
2018-07-03T23:24:42.125Z,15.36
2018-07-03T23:27:10.649Z,15.29
2018-07-03T23:29:38.952Z,15.33
2018-07-03T23:32:07.245Z,15.28
2018-07-03T23:34:35.506Z,15.32
2018-07-03T23:37:03.797Z,15.27
2018-07-03T23:39:32.073Z,15.27
2018-07-03T23:42:00.454Z,15.28
2018-07-03T23:44:28.729Z,15.32
2018-07-03T23:47:08.334Z,15.28
2018-07-03T23:49:48.769Z,15.14
2018-07-03T23:52:28.413Z,15.06
2018-07-03T23:55:08.108Z,15.04
2018-07-03T23:57:47.633Z,14.89
